Time;durP1;ratioP1;P1;durP2;ratioP2;P2;SDS_P1;SDS_P2;PMS_P1;PMS_P2;Temp;Humidity;BMP_temperature;BMP_pressure;BME280_temperature;BME280_humidity;BME280_pressure;Samples;Min_cycle;Max_cycle;Signal;HPM_P1;HPM_P2
2024/01/08 00:00:41;;;;;;;4.17;1.40;;;2.00;99.90;;;;;;4260478;27;20346;-63
2024/01/08 00:02:42;;;;;;;1.73;1.00;;;2.00;99.90;;;;;;4261760;27;21655;-63
2024/01/08 00:04:43;;;;;;;3.83;1.83;;;2.00;99.90;;;;;;4260760;27;20327;-62
2024/01/08 00:06:44;;;;;;;2.60;0.87;;;2.00;99.90;;;;;;4261593;27;20267;-63
2024/01/08 00:08:46;;;;;;;1.53;0.80;;;2.00;99.90;;;;;;4261446;27;20319;-63
2024/01/08 00:10:47;;;;;;;3.50;0.60;;;2.00;99.90;;;;;;4261654;27;20315;-63
2024/01/08 00:12:48;;;;;;;1.73;1.03;;;2.10;99.90;;;;;;4261502;27;20324;-63
2024/01/08 00:14:49;;;;;;;1.00;0.80;;;2.10;99.90;;;;;;4261804;27;20274;-62
2024/01/08 00:16:50;;;;;;;2.13;0.70;;;2.10;99.90;;;;;;4261266;27;20262;-64
2024/01/08 00:18:52;;;;;;;1.30;0.70;;;2.20;99.90;;;;;;4261108;27;20343;-64
2024/01/08 00:20:54;;;;;;;0.30;0.20;;;2.20;99.90;;;;;;4261012;27;20278;-66
2024/01/08 00:22:55;;;;;;;1.20;0.40;;;2.20;99.90;;;;;;4260579;27;20283;-63
2024/01/08 00:24:56;;;;;;;1.10;0.60;;;2.20;99.90;;;;;;4260700;27;20274;-64
2024/01/08 00:26:57;;;;;;;0.40;0.30;;;2.20;99.90;;;;;;4261633;27;20274;-62
2024/01/08 00:28:59;;;;;;;0.50;0.30;;;2.20;99.90;;;;;;4261122;27;20308;-63
2024/01/08 00:31:00;;;;;;;0.93;0.30;;;2.20;99.90;;;;;;4261008;27;20299;-63
2024/01/08 00:33:01;;;;;;;1.07;0.53;;;2.30;99.90;;;;;;4261374;27;21045;-63
2024/01/08 00:35:04;;;;;;;2.03;0.40;;;2.30;99.90;;;;;;4260718;27;20311;-63
2024/01/08 00:37:05;;;;;;;0.70;0.40;;;2.40;99.90;;;;;;4261344;27;20311;-63
2024/01/08 00:39:09;;;;;;;0.70;0.47;;;2.40;99.90;;;;;;4260819;27;20661;-63
2024/01/08 00:41:11;;;;;;;0.80;0.60;;;2.40;99.90;;;;;;4260946;27;20722;-63
2024/01/08 00:43:12;;;;;;;1.30;0.40;;;2.50;99.90;;;;;;4260333;27;20270;-63
2024/01/08 00:45:13;;;;;;;0.50;0.50;;;2.50;99.90;;;;;;4260975;27;20303;-63
2024/01/08 00:47:14;;;;;;;1.07;0.70;;;2.60;99.90;;;;;;4260993;27;20786;-64
2024/01/08 00:49:15;;;;;;;1.07;0.60;;;2.60;99.90;;;;;;4260828;27;20315;-62
2024/01/08 00:51:16;;;;;;;0.83;0.50;;;2.60;99.90;;;;;;4260794;27;20814;-65
2024/01/08 00:53:18;;;;;;;1.00;0.80;;;2.60;99.90;;;;;;4260859;27;20318;-66
2024/01/08 00:55:19;;;;;;;1.60;0.70;;;2.60;99.90;;;;;;4260512;27;20332;-62
2024/01/08 00:57:20;;;;;;;2.00;0.50;;;2.60;99.90;;;;;;4260512;27;20327;-65
2024/01/08 00:59:21;;;;;;;0.97;0.87;;;2.60;99.90;;;;;;4260915;27;20339;-66
2024/01/08 01:01:22;;;;;;;1.40;0.73;;;2.50;99.90;;;;;;4260105;27;20750;-66
2024/01/08 01:03:25;;;;;;;0.57;0.53;;;2.50;99.90;;;;;;4260182;27;20282;-62
2024/01/08 01:05:26;;;;;;;1.23;0.63;;;2.50;99.90;;;;;;4260386;27;20270;-65
2024/01/08 01:07:27;;;;;;;0.93;0.50;;;2.50;99.90;;;;;;4260500;27;20271;-66
2024/01/08 01:09:28;;;;;;;0.80;0.63;;;2.50;99.90;;;;;;4260395;27;20660;-65
2024/01/08 01:11:29;;;;;;;1.03;0.70;;;2.60;99.90;;;;;;4260052;27;20302;-61
2024/01/08 01:13:30;;;;;;;0.80;0.80;;;2.60;99.90;;;;;;4260208;27;20339;-63
2024/01/08 01:15:32;;;;;;;1.70;0.70;;;2.60;99.90;;;;;;4260034;27;20266;-60
2024/01/08 01:17:33;;;;;;;1.17;0.80;;;2.60;99.90;;;;;;4260307;27;20688;-62
2024/01/08 01:19:34;;;;;;;1.83;0.67;;;2.60;99.90;;;;;;4260324;27;20294;-63
2024/01/08 01:21:35;;;;;;;1.63;0.90;;;2.60;99.90;;;;;;4260373;27;20255;-62
2024/01/08 01:23:37;;;;;;;1.33;1.00;;;2.60;99.90;;;;;;4259497;27;20275;-62
2024/01/08 01:25:38;;;;;;;1.10;0.70;;;2.70;99.90;;;;;;4260966;27;20279;-67
2024/01/08 01:27:39;;;;;;;1.37;0.83;;;2.70;99.90;;;;;;4259952;27;20665;-62
2024/01/08 01:29:40;;;;;;;1.30;0.90;;;2.70;99.90;;;;;;4260816;27;21144;-62
2024/01/08 01:31:41;;;;;;;1.23;0.90;;;2.70;99.90;;;;;;4259729;27;20278;-63
2024/01/08 01:33:43;;;;;;;1.47;0.87;;;2.80;99.90;;;;;;4260649;27;20750;-64
2024/01/08 01:35:44;;;;;;;0.80;0.60;;;2.70;99.90;;;;;;4260387;27;20672;-61
2024/01/08 01:37:45;;;;;;;1.10;0.87;;;2.70;99.90;;;;;;4260440;27;20817;-63
2024/01/08 01:39:46;;;;;;;1.07;0.80;;;2.70;99.90;;;;;;4259062;27;20893;-62
2024/01/08 01:41:50;;;;;;;1.50;0.87;;;2.70;99.90;;;;;;4260440;27;20670;-62
2024/01/08 01:43:51;;;;;;;0.70;0.53;;;2.80;99.90;;;;;;4258499;27;20680;-62
2024/01/08 01:45:54;;;;;;;1.60;0.90;;;2.80;99.90;;;;;;4259809;27;20385;-62
2024/01/08 01:47:55;;;;;;;1.50;0.90;;;2.80;99.90;;;;;;4260011;27;20331;-62
2024/01/08 01:49:56;;;;;;;0.90;0.80;;;2.80;99.90;;;;;;4260468;27;20786;-62
2024/01/08 01:51:58;;;;;;;0.87;0.73;;;2.80;99.90;;;;;;4259676;27;20278;-62
2024/01/08 01:54:00;;;;;;;1.13;0.80;;;2.80;99.90;;;;;;4260397;27;20282;-62
2024/01/08 01:56:01;;;;;;;1.10;0.70;;;2.70;99.90;;;;;;4260733;27;20266;-62
2024/01/08 01:58:03;;;;;;;1.70;0.80;;;2.70;99.90;;;;;;4259491;27;20319;-62
2024/01/08 02:00:05;;;;;;;1.23;0.90;;;2.70;99.90;;;;;;4259720;27;20290;-63
2024/01/08 02:02:07;;;;;;;1.63;1.10;;;2.60;99.90;;;;;;4259006;27;20286;-62
2024/01/08 02:04:08;;;;;;;1.67;1.10;;;2.60;99.90;;;;;;4260444;27;20315;-65
2024/01/08 02:06:12;;;;;;;2.73;0.77;;;2.60;99.90;;;;;;4259952;27;20664;-62
2024/01/08 02:08:14;;;;;;;1.20;0.87;;;2.60;99.90;;;;;;4260212;27;20267;-62
2024/01/08 02:10:15;;;;;;;1.63;1.00;;;2.60;99.90;;;;;;4259908;27;20271;-62
2024/01/08 02:12:17;;;;;;;1.70;1.13;;;2.60;99.90;;;;;;4260344;27;20952;-62
2024/01/08 02:14:19;;;;;;;1.40;1.20;;;2.60;99.90;;;;;;4260179;27;20259;-62
2024/01/08 02:16:20;;;;;;;2.80;1.20;;;2.60;99.90;;;;;;4260342;27;20259;-62
2024/01/08 02:18:22;;;;;;;1.97;1.00;;;2.60;99.90;;;;;;4259920;27;20910;-62
2024/01/08 02:20:23;;;;;;;3.67;1.53;;;2.70;99.90;;;;;;4259377;27;20676;-64
2024/01/08 02:22:24;;;;;;;1.10;0.80;;;2.70;99.90;;;;;;4260743;27;20346;-62
2024/01/08 02:24:28;;;;;;;1.00;0.67;;;2.70;99.90;;;;;;4263432;27;20339;-61
2024/01/08 02:26:29;;;;;;;1.23;0.90;;;2.70;99.90;;;;;;4263729;27;20819;-62
2024/01/08 02:28:30;;;;;;;1.43;0.80;;;2.80;99.90;;;;;;4261637;27;20782;-61
2024/01/08 02:30:32;;;;;;;1.27;0.90;;;2.80;99.90;;;;;;4262493;27;20311;-62
2024/01/08 02:32:33;;;;;;;1.70;1.10;;;2.80;99.90;;;;;;4262459;27;20338;-63
2024/01/08 02:34:34;;;;;;;1.83;1.27;;;2.80;99.90;;;;;;4263676;27;20267;-62
2024/01/08 02:36:35;;;;;;;2.47;1.17;;;2.80;99.90;;;;;;4262957;27;20818;-62
2024/01/08 02:38:37;;;;;;;1.60;1.37;;;2.70;99.90;;;;;;4261412;27;20327;-63
2024/01/08 02:40:38;;;;;;;1.17;0.90;;;2.70;99.90;;;;;;4260744;27;20523;-62
2024/01/08 02:42:42;;;;;;;2.23;1.50;;;2.70;99.90;;;;;;4263205;27;20315;-64
2024/01/08 02:44:44;;;;;;;3.50;1.20;;;2.70;99.90;;;;;;4263081;27;20275;-63
2024/01/08 02:46:45;;;;;;;1.50;1.07;;;2.60;99.90;;;;;;4261685;27;20300;-63
2024/01/08 02:48:46;;;;;;;1.83;1.23;;;2.60;99.90;;;;;;4262949;27;20254;-62
2024/01/08 02:50:47;;;;;;;1.57;1.40;;;2.60;99.90;;;;;;4261520;27;20320;-62
2024/01/08 02:52:48;;;;;;;2.13;1.23;;;2.60;99.90;;;;;;4262284;27;20339;-62
2024/01/08 02:54:50;;;;;;;1.73;1.33;;;2.70;99.90;;;;;;4262613;27;20262;-65
2024/01/08 02:56:51;;;;;;;1.53;1.40;;;2.70;99.90;;;;;;4263122;27;20295;-62
2024/01/08 02:58:52;;;;;;;1.50;1.20;;;2.60;99.90;;;;;;4262469;27;20676;-64
2024/01/08 03:00:53;;;;;;;2.83;1.60;;;2.70;99.90;;;;;;4262257;27;20278;-62
2024/01/08 03:02:54;;;;;;;1.33;1.13;;;2.60;99.90;;;;;;4262444;27;20263;-62
2024/01/08 03:04:56;;;;;;;3.07;1.70;;;2.60;99.90;;;;;;4262848;27;20275;-65
2024/01/08 03:06:57;;;;;;;1.50;1.40;;;2.60;99.90;;;;;;4262259;27;20271;-63
2024/01/08 03:08:58;;;;;;;1.20;1.00;;;2.60;99.90;;;;;;4262463;27;20347;-63
2024/01/08 03:10:59;;;;;;;1.43;1.33;;;2.60;99.90;;;;;;4262161;27;20315;-62
2024/01/08 03:13:00;;;;;;;2.27;1.50;;;2.60;99.90;;;;;;4262835;27;20818;-63
2024/01/08 03:15:02;;;;;;;3.17;1.63;;;2.60;99.90;;;;;;4260933;27;20254;-62
2024/01/08 03:17:03;;;;;;;2.03;1.40;;;2.60;99.90;;;;;;4261769;27;20274;-62
2024/01/08 03:19:05;;;;;;;1.43;1.07;;;2.60;99.90;;;;;;4262092;27;20278;-66
2024/01/08 03:21:06;;;;;;;1.73;1.37;;;2.60;99.90;;;;;;4262226;27;20267;-62
2024/01/08 03:23:09;;;;;;;2.03;1.20;;;2.60;99.90;;;;;;4261995;27;20267;-64
2024/01/08 03:25:10;;;;;;;2.07;1.37;;;2.60;99.90;;;;;;4262230;27;20278;-62
2024/01/08 03:27:12;;;;;;;2.03;1.63;;;2.60;99.90;;;;;;4257741;27;20734;-62
2024/01/08 03:29:13;;;;;;;2.37;1.47;;;2.60;99.90;;;;;;4262007;27;20339;-62
2024/01/08 03:31:15;;;;;;;3.00;1.40;;;2.60;99.90;;;;;;4262090;27;20692;-65
2024/01/08 03:33:16;;;;;;;2.30;1.47;;;2.60;99.90;;;;;;4261759;27;20299;-63
2024/01/08 03:35:18;;;;;;;1.20;1.10;;;2.60;99.90;;;;;;4261155;27;20278;-62
2024/01/08 03:37:19;;;;;;;1.80;1.47;;;2.60;99.90;;;;;;4261899;27;20743;-62
2024/01/08 03:39:20;;;;;;;1.90;1.27;;;2.60;99.90;;;;;;4262059;27;20298;-65
2024/01/08 03:41:22;;;;;;;1.30;1.20;;;2.70;99.90;;;;;;4261618;27;20371;-62
2024/01/08 03:43:23;;;;;;;2.37;1.57;;;2.70;99.90;;;;;;4261447;27;20331;-63
2024/01/08 03:45:24;;;;;;;1.70;1.20;;;2.60;99.90;;;;;;4261075;27;20290;-62
2024/01/08 03:47:26;;;;;;;3.17;1.40;;;2.70;99.90;;;;;;4261677;27;20271;-61
2024/01/08 03:49:27;;;;;;;2.13;1.50;;;2.60;99.90;;;;;;4261730;27;20307;-63
2024/01/08 03:51:28;;;;;;;2.20;1.30;;;2.60;99.90;;;;;;4262028;27;20328;-62
2024/01/08 03:53:29;;;;;;;2.80;1.87;;;2.70;99.90;;;;;;4261717;27;20648;-62
2024/01/08 03:55:33;;;;;;;2.30;1.33;;;2.70;99.90;;;;;;4261371;27;20672;-61
2024/01/08 03:57:35;;;;;;;2.03;1.43;;;2.70;99.90;;;;;;4260236;27;20275;-64
2024/01/08 03:59:36;;;;;;;3.83;1.77;;;2.70;99.90;;;;;;4261393;27;20608;-64
2024/01/08 04:01:44;;;;;;;1.87;1.70;;;2.70;99.90;;;;;;4260505;27;20319;-62
2024/01/08 04:03:45;;;;;;;2.23;1.90;;;2.70;99.90;;;;;;4261335;27;20322;-62
2024/01/08 04:05:46;;;;;;;2.93;2.07;;;2.70;99.90;;;;;;4261651;27;20319;-62
2024/01/08 04:07:47;;;;;;;2.70;1.60;;;2.70;99.90;;;;;;4261323;27;20315;-62
2024/01/08 04:09:48;;;;;;;2.60;2.10;;;2.70;99.90;;;;;;4260413;27;20283;-62
2024/01/08 04:11:49;;;;;;;2.37;2.00;;;2.80;99.90;;;;;;4261224;27;20274;-66
2024/01/08 04:13:51;;;;;;;2.77;2.00;;;2.80;99.90;;;;;;4261340;27;20270;-63
2024/01/08 04:15:52;;;;;;;2.83;1.90;;;2.70;99.90;;;;;;4260684;27;20673;-63
2024/01/08 04:17:53;;;;;;;2.67;1.83;;;2.70;99.90;;;;;;4261802;27;20271;-63
2024/01/08 04:19:54;;;;;;;2.13;1.83;;;2.60;99.90;;;;;;4260937;27;20303;-64
2024/01/08 04:21:55;;;;;;;6.27;2.30;;;2.60;99.90;;;;;;4261589;27;20700;-64
2024/01/08 04:23:56;;;;;;;2.50;1.97;;;2.50;99.90;;;;;;4261032;27;20275;-64
2024/01/08 04:25:57;;;;;;;3.40;2.53;;;2.50;99.90;;;;;;4261164;27;20278;-62
2024/01/08 04:27:59;;;;;;;2.90;2.40;;;2.50;99.90;;;;;;4260048;27;20314;-65
2024/01/08 04:30:00;;;;;;;4.23;2.83;;;2.50;99.90;;;;;;4261089;27;20267;-65
2024/01/08 04:32:01;;;;;;;4.27;2.50;;;2.50;99.90;;;;;;4260243;27;20319;-63
2024/01/08 04:34:02;;;;;;;10.90;5.47;;;2.60;99.90;;;;;;4261022;27;20286;-63
2024/01/08 04:36:04;;;;;;;7.33;4.50;;;2.60;99.90;;;;;;4261131;27;20308;-63
2024/01/08 04:38:05;;;;;;;4.43;2.83;;;2.60;99.90;;;;;;4260826;27;20251;-65
2024/01/08 04:40:07;;;;;;;3.93;2.17;;;2.60;99.90;;;;;;4260904;27;20286;-64
2024/01/08 04:42:08;;;;;;;2.67;2.10;;;2.60;99.90;;;;;;4260443;27;20259;-65
2024/01/08 04:44:10;;;;;;;3.53;2.37;;;2.60;99.90;;;;;;4259607;27;20271;-64
2024/01/08 04:46:11;;;;;;;3.97;2.47;;;2.60;99.90;;;;;;4259469;27;20274;-62
2024/01/08 04:48:12;;;;;;;2.73;2.00;;;2.50;99.90;;;;;;4261377;27;20311;-64
2024/01/08 04:50:13;;;;;;;4.57;2.67;;;2.50;99.90;;;;;;4260490;27;20274;-63
2024/01/08 04:52:14;;;;;;;6.10;2.50;;;2.50;99.90;;;;;;4260394;27;20319;-63
2024/01/08 04:54:16;;;;;;;2.93;2.20;;;2.50;99.90;;;;;;4260789;27;20275;-62
2024/01/08 04:56:25;;;;;;;5.90;2.30;;;2.50;99.90;;;;;;4261140;27;20263;-62
2024/01/08 04:58:26;;;;;;;3.53;2.40;;;2.50;99.90;;;;;;4260952;27;20742;-63
2024/01/08 05:00:27;;;;;;;3.90;2.60;;;2.50;99.90;;;;;;4259688;27;20290;-64
2024/01/08 05:02:29;;;;;;;2.97;2.50;;;2.60;99.90;;;;;;4259238;27;20312;-66
2024/01/08 05:04:30;;;;;;;2.50;2.13;;;2.60;99.90;;;;;;4260840;27;20266;-63
2024/01/08 05:06:31;;;;;;;4.07;2.67;;;2.60;99.90;;;;;;4259960;27;20308;-63
2024/01/08 05:08:32;;;;;;;3.73;2.10;;;2.60;99.90;;;;;;4258357;27;20274;-66
2024/01/08 05:10:33;;;;;;;4.93;2.60;;;2.60;99.90;;;;;;4260869;27;20742;-65
2024/01/08 05:12:34;;;;;;;3.27;2.30;;;2.60;99.90;;;;;;4259231;27;20660;-62
2024/01/08 05:14:35;;;;;;;3.33;2.43;;;2.60;99.90;;;;;;4260696;27;20327;-64
2024/01/08 05:16:37;;;;;;;4.20;2.70;;;2.60;99.90;;;;;;4257932;27;20278;-62
2024/01/08 05:18:38;;;;;;;6.43;4.77;;;2.60;99.90;;;;;;4260190;27;20689;-62
2024/01/08 05:20:39;;;;;;;3.53;2.63;;;2.50;99.90;;;;;;4258725;27;20282;-62
2024/01/08 05:22:40;;;;;;;3.37;2.40;;;2.50;99.90;;;;;;4260453;27;20274;-65
2024/01/08 05:27:03;;;;;;;2.43;1.80;;;2.50;99.90;;;;;;4628272;22;20288;-64
2024/01/08 05:29:04;;;;;;;2.83;2.10;;;2.50;99.90;;;;;;4143323;28;20275;-62
2024/01/08 05:31:05;;;;;;;3.73;2.30;;;2.50;99.90;;;;;;4144944;28;20263;-64
2024/01/08 05:33:07;;;;;;;2.60;2.00;;;2.50;99.90;;;;;;4143821;28;20259;-64
2024/01/08 05:35:08;;;;;;;3.77;2.20;;;2.50;99.90;;;;;;4141510;28;20283;-64
2024/01/08 05:37:09;;;;;;;3.17;2.40;;;2.50;99.90;;;;;;4143899;28;20272;-61
2024/01/08 05:39:10;;;;;;;3.23;2.10;;;2.50;99.90;;;;;;4143732;28;20337;-62
2024/01/08 05:41:11;;;;;;;2.47;1.80;;;2.50;99.90;;;;;;4144012;28;20322;-63
2024/01/08 05:43:13;;;;;;;4.53;2.50;;;2.50;99.90;;;;;;4142784;28;20333;-63
2024/01/08 05:45:14;;;;;;;6.77;3.70;;;2.50;99.90;;;;;;4144981;28;20267;-62
2024/01/08 05:47:15;;;;;;;7.50;3.80;;;2.50;99.90;;;;;;4143779;28;20279;-62
2024/01/08 05:49:16;;;;;;;4.90;3.27;;;2.50;99.90;;;;;;4144552;28;20280;-62
2024/01/08 05:51:17;;;;;;;3.97;2.60;;;2.60;99.90;;;;;;4143724;28;20272;-62
2024/01/08 05:53:19;;;;;;;5.07;3.07;;;2.50;99.90;;;;;;4145332;28;20345;-62
2024/01/08 05:55:23;;;;;;;4.83;2.67;;;2.60;99.90;;;;;;4143385;28;20321;-61
2024/01/08 05:57:24;;;;;;;3.23;2.20;;;2.60;99.90;;;;;;4145516;28;20268;-61
2024/01/08 05:59:26;;;;;;;5.57;3.37;;;2.50;99.90;;;;;;4146847;28;20666;-61
2024/01/08 06:01:27;;;;;;;5.80;4.07;;;2.60;99.90;;;;;;4147369;28;20275;-67
2024/01/08 06:03:28;;;;;;;12.83;8.87;;;2.60;99.90;;;;;;4147202;28;20267;-61
2024/01/08 06:05:29;;;;;;;6.00;3.97;;;2.50;99.90;;;;;;4147572;28;20275;-66
2024/01/08 06:07:31;;;;;;;6.03;2.80;;;2.60;99.90;;;;;;4147345;28;20274;-66
2024/01/08 06:09:32;;;;;;;7.83;3.93;;;2.60;99.90;;;;;;4146818;28;20275;-68
2024/01/08 06:11:33;;;;;;;7.63;3.23;;;2.60;99.90;;;;;;4147038;28;20321;-64
2024/01/08 06:13:36;;;;;;;7.00;3.33;;;2.60;99.90;;;;;;4147024;28;20337;-64
2024/01/08 06:15:38;;;;;;;7.30;4.13;;;2.60;99.90;;;;;;4147867;28;20268;-63
2024/01/08 06:17:39;;;;;;;7.50;4.10;;;2.60;99.90;;;;;;4146658;28;20314;-65
2024/01/08 06:19:41;;;;;;;9.10;5.13;;;2.50;99.90;;;;;;4147722;28;20295;-63
2024/01/08 06:21:42;;;;;;;9.03;5.47;;;2.60;99.90;;;;;;4146901;28;20330;-64
2024/01/08 06:23:43;;;;;;;11.07;5.53;;;2.50;99.90;;;;;;4147908;28;20275;-62
2024/01/08 06:25:44;;;;;;;7.87;4.33;;;2.50;99.90;;;;;;4146807;28;20686;-63
2024/01/08 06:27:45;;;;;;;9.57;4.63;;;2.60;99.90;;;;;;4147798;28;20303;-62
2024/01/08 06:29:47;;;;;;;13.80;8.37;;;2.60;99.90;;;;;;4146517;28;20701;-65
2024/01/08 06:31:48;;;;;;;16.67;9.87;;;2.60;99.90;;;;;;4147474;28;20743;-65
2024/01/08 06:33:49;;;;;;;41.87;16.53;;;2.60;99.90;;;;;;4146918;28;20301;-62
2024/01/08 06:35:50;;;;;;;27.20;14.63;;;2.60;99.90;;;;;;4147488;28;20264;-63
2024/01/08 06:37:51;;;;;;;21.73;12.33;;;2.60;99.90;;;;;;4147035;28;20321;-61
2024/01/08 06:39:53;;;;;;;19.67;11.50;;;2.60;99.90;;;;;;4146828;28;20609;-63
2024/01/08 06:41:54;;;;;;;9.67;5.90;;;2.60;99.90;;;;;;4147269;28;20345;-62
2024/01/08 06:43:56;;;;;;;7.23;4.13;;;2.60;99.90;;;;;;4146212;28;20309;-67
2024/01/08 06:45:57;;;;;;;8.90;4.80;;;2.60;99.90;;;;;;4147167;28;20271;-63
2024/01/08 06:47:58;;;;;;;14.30;4.63;;;2.70;99.90;;;;;;4146519;28;20307;-63
2024/01/08 06:49:59;;;;;;;10.33;3.83;;;2.70;99.90;;;;;;4147251;28;20310;-60
2024/01/08 06:52:01;;;;;;;7.43;3.70;;;2.60;99.90;;;;;;4146257;28;20275;-63
2024/01/08 06:54:02;;;;;;;7.20;3.17;;;2.60;99.90;;;;;;4147347;28;20271;-65
2024/01/08 06:56:04;;;;;;;10.07;4.10;;;2.60;99.90;;;;;;4146400;28;20419;-64
2024/01/08 06:58:05;;;;;;;13.87;6.87;;;2.60;99.90;;;;;;4147771;28;20272;-63
2024/01/08 07:00:08;;;;;;;19.30;9.73;;;2.60;99.90;;;;;;4146030;28;20287;-64
2024/01/08 07:02:09;;;;;;;12.77;6.57;;;2.60;99.90;;;;;;4146956;28;20349;-64
2024/01/08 07:04:10;;;;;;;25.83;11.47;;;2.60;99.90;;;;;;4146099;28;20378;-63
2024/01/08 07:06:11;;;;;;;11.03;4.87;;;2.60;99.90;;;;;;4147059;28;21261;-62
2024/01/08 07:08:12;;;;;;;9.77;4.93;;;2.60;99.90;;;;;;4146425;28;20259;-61
2024/01/08 07:10:14;;;;;;;8.70;3.60;;;2.60;99.90;;;;;;4145497;28;20271;-61
2024/01/08 07:12:15;;;;;;;5.20;3.60;;;2.60;99.90;;;;;;4145359;28;20714;-65
2024/01/08 07:14:16;;;;;;;12.67;7.83;;;2.70;99.90;;;;;;4145994;28;20679;-63
2024/01/08 07:16:18;;;;;;;14.47;9.07;;;2.60;99.90;;;;;;4146949;28;20291;-66
2024/01/08 07:18:19;;;;;;;10.07;5.70;;;2.60;99.90;;;;;;4145616;28;20267;-62
2024/01/08 07:20:20;;;;;;;8.17;4.30;;;2.60;99.90;;;;;;4146694;28;20650;-61
2024/01/08 07:22:22;;;;;;;8.20;4.97;;;2.60;99.90;;;;;;4145924;28;20267;-65
2024/01/08 07:24:23;;;;;;;6.07;4.17;;;2.60;99.90;;;;;;4147082;28;20287;-62
2024/01/08 07:26:24;;;;;;;7.73;3.10;;;2.60;99.90;;;;;;4145743;28;20809;-66
2024/01/08 07:28:26;;;;;;;6.53;3.40;;;2.60;99.90;;;;;;4147184;28;20333;-64
2024/01/08 07:30:27;;;;;;;5.63;3.30;;;2.60;99.90;;;;;;4144412;28;20719;-63
2024/01/08 07:32:28;;;;;;;4.70;3.30;;;2.60;99.90;;;;;;4147028;28;20268;-62
2024/01/08 07:34:30;;;;;;;6.53;3.53;;;2.60;99.90;;;;;;4145802;28;20325;-62
2024/01/08 07:36:31;;;;;;;7.30;2.77;;;2.60;99.90;;;;;;4146712;28;20785;-67
2024/01/08 07:38:33;;;;;;;5.93;3.10;;;2.70;99.90;;;;;;4144920;28;20333;-62
2024/01/08 07:40:34;;;;;;;6.13;3.63;;;2.70;99.90;;;;;;4146153;28;20299;-66
2024/01/08 07:42:35;;;;;;;6.87;3.67;;;2.70;99.90;;;;;;4146203;28;20259;-62
2024/01/08 07:44:37;;;;;;;7.00;3.50;;;2.70;99.90;;;;;;4145644;28;20591;-64
2024/01/08 07:46:38;;;;;;;6.40;3.83;;;2.80;99.90;;;;;;4146458;28;20405;-62
2024/01/08 07:48:40;;;;;;;7.70;3.67;;;2.80;99.90;;;;;;4145379;28;20275;-61
2024/01/08 07:50:41;;;;;;;4.47;2.80;;;2.80;99.90;;;;;;4146791;28;20700;-62
2024/01/08 07:52:42;;;;;;;7.13;3.53;;;2.80;99.90;;;;;;4145305;28;20314;-63
2024/01/08 07:54:43;;;;;;;6.83;3.30;;;2.90;99.90;;;;;;4146423;28;20263;-60
2024/01/08 07:56:44;;;;;;;4.00;2.33;;;2.90;99.90;;;;;;4145247;28;20743;-62
2024/01/08 07:58:45;;;;;;;4.67;2.20;;;2.90;99.90;;;;;;4146935;28;20321;-63
2024/01/08 08:00:47;;;;;;;5.50;2.87;;;2.80;99.90;;;;;;4145171;28;20287;-63
2024/01/08 08:02:48;;;;;;;5.17;3.33;;;2.80;99.90;;;;;;4146338;28;20267;-63
2024/01/08 08:04:50;;;;;;;4.40;3.20;;;2.70;99.90;;;;;;4145346;28;20663;-66
2024/01/08 08:06:51;;;;;;;5.10;2.73;;;2.80;99.90;;;;;;4146149;28;20263;-67
2024/01/08 08:08:53;;;;;;;5.80;3.83;;;2.70;99.90;;;;;;4144105;28;20275;-67
2024/01/08 08:10:54;;;;;;;3.93;2.07;;;2.70;99.90;;;;;;4145662;28;20263;-64
2024/01/08 08:12:55;;;;;;;1.70;1.53;;;2.70;99.90;;;;;;4145445;28;20341;-61
2024/01/08 08:14:58;;;;;;;3.20;2.20;;;2.70;99.90;;;;;;4145223;28;20307;-63
2024/01/08 08:16:59;;;;;;;1.93;1.33;;;2.60;99.90;;;;;;4145757;28;20353;-62
2024/01/08 08:19:00;;;;;;;4.37;2.17;;;2.60;99.90;;;;;;4145064;28;20752;-62
2024/01/08 08:21:04;;;;;;;6.20;2.60;;;2.60;99.90;;;;;;4145825;28;20307;-62
2024/01/08 08:23:05;;;;;;;3.33;1.83;;;2.60;99.90;;;;;;4144838;28;20283;-63
2024/01/08 08:25:07;;;;;;;2.07;1.50;;;2.60;99.90;;;;;;4146004;28;20760;-65
2024/01/08 08:27:09;;;;;;;3.27;2.20;;;2.60;99.90;;;;;;4144932;28;20337;-65
2024/01/08 08:29:10;;;;;;;4.70;1.67;;;2.60;99.90;;;;;;4146132;28;20333;-63
2024/01/08 08:31:13;;;;;;;7.60;3.73;;;2.60;99.90;;;;;;4144546;28;20267;-63
2024/01/08 08:33:14;;;;;;;3.50;2.77;;;2.70;99.90;;;;;;4145609;28;20317;-65
2024/01/08 08:35:16;;;;;;;2.07;1.77;;;2.60;99.90;;;;;;4144724;28;20272;-61
2024/01/08 08:37:17;;;;;;;2.87;1.60;;;2.60;99.90;;;;;;4145956;28;20275;-62
2024/01/08 08:39:18;;;;;;;3.17;2.17;;;2.60;99.90;;;;;;4144823;28;20297;-62
2024/01/08 08:41:19;;;;;;;13.10;7.47;;;2.70;99.90;;;;;;4144030;28;20336;-62
2024/01/08 08:43:21;;;;;;;7.97;5.20;;;2.80;99.90;;;;;;4145283;28;20271;-62
2024/01/08 08:45:22;;;;;;;6.73;3.20;;;2.90;99.90;;;;;;4145062;28;20371;-63
2024/01/08 08:47:23;;;;;;;2.70;1.77;;;2.90;99.90;;;;;;4145359;28;20271;-63
2024/01/08 08:49:25;;;;;;;2.63;2.10;;;2.90;99.90;;;;;;4144664;28;20616;-64
2024/01/08 08:51:26;;;;;;;1.60;1.13;;;3.00;99.90;;;;;;4145913;28;20399;-64
2024/01/08 08:53:29;;;;;;;3.17;1.43;;;2.90;99.90;;;;;;4144360;28;20322;-62
2024/01/08 08:55:30;;;;;;;2.47;1.40;;;2.80;99.90;;;;;;4145591;28;20264;-66
2024/01/08 08:57:31;;;;;;;2.40;1.30;;;2.80;99.90;;;;;;4143071;28;20294;-63
2024/01/08 08:59:37;;;;;;;4.37;2.77;;;2.80;99.90;;;;;;4145784;28;20279;-65
2024/01/08 09:01:38;;;;;;;3.63;1.20;;;2.80;99.90;;;;;;4144367;28;20287;-66
2024/01/08 09:03:39;;;;;;;3.87;1.67;;;2.80;99.90;;;;;;4145283;28;20309;-64
2024/01/08 09:05:40;;;;;;;3.63;1.53;;;2.80;99.90;;;;;;4144558;28;20283;-63
2024/01/08 09:07:41;;;;;;;2.07;1.40;;;2.70;99.90;;;;;;4145666;28;20326;-63
2024/01/08 09:09:43;;;;;;;4.23;1.60;;;2.70;99.90;;;;;;4144255;28;20306;-61
2024/01/08 09:11:44;;;;;;;5.47;2.33;;;2.70;99.90;;;;;;4145199;28;20259;-62
2024/01/08 09:13:47;;;;;;;5.70;2.37;;;2.70;99.90;;;;;;4144760;28;20317;-65
2024/01/08 09:15:48;;;;;;;6.80;2.60;;;2.60;99.90;;;;;;4144467;28;20318;-66
2024/01/08 09:17:49;;;;;;;2.33;1.43;;;2.60;99.90;;;;;;4144857;28;20411;-62
2024/01/08 09:19:52;;;;;;;8.50;1.50;;;2.60;99.90;;;;;;4144056;28;20259;-63
2024/01/08 09:21:53;;;;;;;2.13;1.30;;;2.60;99.90;;;;;;4145067;28;20353;-63
2024/01/08 09:23:54;;;;;;;9.00;1.40;;;2.60;99.90;;;;;;4143904;28;20317;-63
2024/01/08 09:25:55;;;;;;;5.07;1.70;;;2.60;99.90;;;;;;4145230;28;20268;-62
2024/01/08 09:27:56;;;;;;;1.83;1.30;;;2.60;99.90;;;;;;4144302;28;20690;-62
2024/01/08 09:29:58;;;;;;;6.30;1.77;;;2.60;99.90;;;;;;4145552;28;20326;-63
2024/01/08 09:31:59;;;;;;;5.33;2.33;;;2.50;99.90;;;;;;4144275;28;20337;-66
2024/01/08 09:34:01;;;;;;;5.37;1.80;;;2.60;99.90;;;;;;4148659;28;20310;-65
2024/01/08 09:36:02;;;;;;;6.63;1.63;;;2.60;99.90;;;;;;4147416;28;20328;-66
2024/01/08 09:38:03;;;;;;;1.80;1.23;;;2.70;99.90;;;;;;4148363;28;20345;-63
2024/01/08 09:40:05;;;;;;;1.43;1.30;;;2.70;99.90;;;;;;4147156;28;20268;-63
2024/01/08 09:42:09;;;;;;;2.67;1.40;;;2.60;99.90;;;;;;4148074;28;20295;-63
2024/01/08 09:44:14;;;;;;;4.37;1.40;;;2.60;99.90;;;;;;4147483;28;20259;-63
2024/01/08 09:46:28;;;;;;;3.90;1.70;;;2.60;99.90;;;;;;4148053;28;20958;-63
2024/01/08 09:48:35;;;;;;;5.27;2.50;;;2.50;99.90;;;;;;4147309;28;20267;-62
2024/01/08 09:50:38;;;;;;;9.10;4.10;;;2.50;99.90;;;;;;4147863;28;20361;-62
2024/01/08 09:52:40;;;;;;;9.40;4.50;;;2.40;99.90;;;;;;4147295;28;20690;-62
2024/01/08 09:54:42;;;;;;;3.83;1.77;;;2.50;99.90;;;;;;4147686;28;20302;-62
2024/01/08 09:56:43;;;;;;;3.57;1.53;;;2.40;99.90;;;;;;4146621;28;20714;-63
2024/01/08 09:58:45;;;;;;;7.07;1.90;;;2.40;99.90;;;;;;4147777;28;20679;-63
2024/01/08 10:00:46;;;;;;;7.57;3.30;;;2.50;99.90;;;;;;4148091;28;20687;-62
2024/01/08 10:02:55;;;;;;;2.93;1.93;;;2.40;99.90;;;;;;4147025;28;20706;-61
2024/01/08 10:04:56;;;;;;;6.60;1.70;;;2.50;99.90;;;;;;4147972;28;20271;-62
2024/01/08 10:07:08;;;;;;;6.07;2.37;;;2.50;99.90;;;;;;4147032;28;20263;-62
2024/01/08 10:09:09;;;;;;;4.83;2.03;;;2.50;99.90;;;;;;4148062;28;20271;-62
2024/01/08 10:11:12;;;;;;;1.73;1.40;;;2.50;99.90;;;;;;4146987;28;20341;-57
2024/01/08 10:13:14;;;;;;;2.00;1.67;;;2.50;99.90;;;;;;4148263;28;20275;-63
2024/01/08 10:15:19;;;;;;;3.73;1.63;;;2.50;99.90;;;;;;4146866;28;20804;-61
2024/01/08 10:17:21;;;;;;;5.43;2.80;;;2.60;99.90;;;;;;4148068;28;20779;-61
2024/01/08 10:19:23;;;;;;;5.30;1.73;;;2.70;99.90;;;;;;4146919;28;20735;-62
2024/01/08 10:21:25;;;;;;;2.23;1.23;;;2.80;99.90;;;;;;4147842;28;20620;-61
2024/01/08 10:23:26;;;;;;;5.13;1.70;;;2.80;99.90;;;;;;4146739;28;20719;-61
2024/01/08 10:25:27;;;;;;;6.37;2.30;;;2.90;99.90;;;;;;4147694;28;20267;-62
2024/01/08 10:27:29;;;;;;;5.03;1.97;;;2.90;99.90;;;;;;4146468;28;20333;-64
2024/01/08 10:29:31;;;;;;;3.67;1.77;;;3.00;99.90;;;;;;4147637;28;20267;-62
2024/01/08 10:31:32;;;;;;;4.17;1.43;;;3.10;99.90;;;;;;4146942;28;20248;-63
2024/01/08 10:33:34;;;;;;;2.77;1.30;;;3.10;99.90;;;;;;4146711;28;20322;-63
2024/01/08 10:35:36;;;;;;;16.60;2.43;;;3.10;99.90;;;;;;4147664;28;20256;-62
2024/01/08 10:37:39;;;;;;;5.50;1.90;;;3.10;99.90;;;;;;4146189;28;20337;-63
2024/01/08 10:39:40;;;;;;;10.57;6.63;;;3.10;99.90;;;;;;4147372;28;20417;-64
2024/01/08 10:41:41;;;;;;;10.77;4.90;;;3.20;99.90;;;;;;4146494;28;20295;-66